Time;durP1;ratioP1;P1;durP2;ratioP2;P2;SDS_P1;SDS_P2;PMS_P1;PMS_P2;Temp;Humidity;BMP_temperature;BMP_pressure;BME280_temperature;BME280_humidity;BME280_pressure;Samples;Min_cycle;Max_cycle;Signal;HPM_P1;HPM_P2
2022/02/10 00:14:41;;;;;;;0.10;0.10;;;4.10;99.90;;;;;;5065723;28;20184;-83
2022/02/10 00:17:14;;;;;;;0.10;0.10;;;4.20;99.90;;;;;;5058331;28;20212;-83
2022/02/10 00:25:48;;;;;;;0.10;0.10;;;4.10;99.90;;;;;;5062470;28;20232;-83
2022/02/10 00:36:16;;;;;;;0.10;0.10;;;4.20;99.90;;;;;;5056631;28;20221;-83
2022/02/10 00:38:50;;;;;;;0.20;0.20;;;4.20;99.90;;;;;;5055252;28;20173;-83
2022/02/10 00:41:16;;;;;;;1.07;0.53;;;4.20;99.90;;;;;;5061219;28;20186;-83
2022/02/10 00:43:41;;;;;;;0.13;0.13;;;4.10;99.90;;;;;;5067292;28;20183;-83
2022/02/10 00:46:07;;;;;;;0.10;0.10;;;4.00;99.90;;;;;;5056383;28;20222;-83
2022/02/10 00:48:33;;;;;;;0.20;0.20;;;3.90;99.90;;;;;;5057044;28;20177;-83
2022/02/10 00:50:59;;;;;;;0.30;0.30;;;3.80;99.90;;;;;;5064847;28;20285;-83
2022/02/10 00:53:28;;;;;;;0.10;0.10;;;3.70;99.90;;;;;;5065470;28;20192;-83
2022/02/10 00:55:54;;;;;;;0.20;0.20;;;3.60;99.90;;;;;;5059211;28;20207;-83
2022/02/10 00:58:25;;;;;;;0.10;0.10;;;3.60;99.90;;;;;;5062289;28;20616;-83
2022/02/10 01:30:41;;;;;;;0.33;0.33;;;3.80;99.90;;;;;;5027218;28;20249;-82
2022/02/10 01:33:09;;;;;;;0.17;0.10;;;3.80;99.90;;;;;;5066241;28;20642;-82
2022/02/10 01:35:35;;;;;;;0.10;0.10;;;3.80;99.90;;;;;;5062523;28;20225;-83
2022/02/10 01:38:00;;;;;;;0.47;0.40;;;3.90;99.90;;;;;;5056124;28;20215;-83
2022/02/10 01:43:25;;;;;;;0.37;0.37;;;3.90;99.90;;;;;;5067168;28;20215;-83
2022/02/10 02:05:01;;;;;;;0.17;0.17;;;3.50;99.90;;;;;;5067721;28;20582;-82
2022/02/10 02:07:30;;;;;;;0.33;0.20;;;3.50;99.90;;;;;;5074867;28;20230;-83
2022/02/10 02:09:55;;;;;;;0.20;0.20;;;3.60;99.90;;;;;;5066551;28;20173;-83
2022/02/10 02:12:21;;;;;;;0.07;0.07;;;3.60;99.90;;;;;;5064189;28;20199;-83
2022/02/10 02:14:47;;;;;;;0.23;0.23;;;3.70;99.90;;;;;;5061878;28;20201;-83
2022/02/10 02:17:12;;;;;;;0.20;0.20;;;3.60;99.90;;;;;;5055325;28;20319;-82
2022/02/10 02:19:38;;;;;;;0.20;0.10;;;3.60;99.90;;;;;;5065678;28;20193;-83
2022/02/10 02:22:06;;;;;;;0.00;0.00;;;3.60;99.90;;;;;;5057345;28;20204;-83
2022/02/10 02:24:32;;;;;;;0.30;0.30;;;3.60;99.90;;;;;;5063495;28;20576;-83
2022/02/10 02:27:02;;;;;;;0.27;0.27;;;3.30;99.90;;;;;;5068920;28;20187;-83
2022/02/10 02:29:36;;;;;;;0.30;0.30;;;3.30;99.90;;;;;;5063971;28;20184;-83
2022/02/10 02:32:12;;;;;;;0.57;0.57;;;3.20;99.90;;;;;;5063322;28;20191;-83
2022/02/10 02:37:58;;;;;;;0.40;0.40;;;3.20;99.90;;;;;;5042062;28;20677;-83
2022/02/10 03:05:20;;;;;;;1.20;0.27;;;3.30;99.90;;;;;;5058689;28;20234;-83
2022/02/10 03:07:49;;;;;;;0.30;0.30;;;3.20;99.90;;;;;;5062904;28;20563;-83
2022/02/10 03:12:41;;;;;;;0.27;0.27;;;3.10;99.90;;;;;;5063347;28;20617;-83
2022/02/10 03:15:15;;;;;;;0.40;0.40;;;3.10;99.90;;;;;;5075051;28;20203;-82
2022/02/10 04:02:09;;;;;;;0.30;0.30;;;2.70;99.90;;;;;;5062043;28;20198;-83
2022/02/10 04:15:21;;;;;;;0.20;0.20;;;2.90;99.90;;;;;;5058635;28;20201;-83
2022/02/10 04:20:47;;;;;;;0.10;0.10;;;2.70;99.90;;;;;;5058226;28;20248;-83
2022/02/10 04:40:34;;;;;;;0.20;0.20;;;3.00;99.90;;;;;;5061808;28;20227;-82
2022/02/10 04:53:07;;;;;;;0.30;0.30;;;3.00;99.90;;;;;;5060886;28;20204;-83
2022/02/10 05:08:48;;;;;;;0.20;0.20;;;2.40;99.90;;;;;;5070160;28;20248;-83
2022/02/10 05:34:51;;;;;;;0.63;0.53;;;2.40;99.90;;;;;;5062038;28;20215;-82
2022/02/10 05:37:19;;;;;;;0.47;0.40;;;2.30;99.90;;;;;;5061243;28;20728;-83
2022/02/10 05:39:48;;;;;;;1.07;0.97;;;2.40;99.90;;;;;;5058941;28;20199;-83
2022/02/10 05:45:48;;;;;;;0.27;0.27;;;2.50;99.90;;;;;;5058163;28;20667;-82
2022/02/10 05:50:34;;;;;;;0.60;0.57;;;2.40;99.90;;;;;;5059665;28;20654;-83
2022/02/10 05:58:08;;;;;;;0.73;0.57;;;2.50;99.90;;;;;;5064170;28;20177;-83
2022/02/10 06:47:46;;;;;;;0.20;0.20;;;4.10;99.90;;;;;;5060922;28;20207;-82
2022/02/10 07:09:23;;;;;;;0.50;0.50;;;4.40;99.90;;;;;;5066052;28;20184;-84
2022/02/10 07:54:33;;;;;;;0.17;0.17;;;5.30;99.90;;;;;;5058833;28;20215;-83
2022/02/10 07:57:27;;;;;;;0.30;0.30;;;5.50;99.90;;;;;;5069993;28;20194;-83
2022/02/10 08:59:23;;;;;;;0.40;0.40;;;6.50;99.90;;;;;;5067465;28;20174;-83
2022/02/10 09:04:46;;;;;;;0.43;0.23;;;6.50;99.90;;;;;;5068083;28;20278;-83
2022/02/10 09:07:43;;;;;;;0.30;0.30;;;6.50;99.90;;;;;;5070945;28;20180;-83
2022/02/10 09:18:31;;;;;;;0.70;0.53;;;6.80;99.90;;;;;;5068444;28;20666;-83
2022/02/10 09:21:37;;;;;;;0.30;0.30;;;7.00;99.90;;;;;;5065744;28;20717;-83
2022/02/10 09:59:25;;;;;;;0.80;0.73;;;7.30;99.90;;;;;;5066063;28;20258;-82
2022/02/10 10:04:40;;;;;;;4.77;1.40;;;7.50;99.90;;;;;;5069537;28;20230;-83
2022/02/10 10:21:05;;;;;;;0.77;0.77;;;7.70;99.90;;;;;;5061406;28;20534;-84
2022/02/10 10:26:35;;;;;;;0.50;0.50;;;7.80;99.90;;;;;;5066160;28;20223;-83
2022/02/10 10:49:47;;;;;;;1.27;0.60;;;7.80;99.90;;;;;;5076720;28;20273;-83
2022/02/10 10:51:52;;;;;;;1.17;1.07;;;7.80;99.90;;;;;;5063635;28;20181;-83
2022/02/10 10:56:50;;;;;;;0.87;0.60;;;7.90;99.90;;;;;;5079847;28;20174;-83
2022/02/10 11:38:32;;;;;;;0.83;0.80;;;8.50;99.90;;;;;;5060299;28;20213;-83
2022/02/10 11:41:11;;;;;;;1.30;1.30;;;8.60;99.90;;;;;;5067301;28;20270;-83
2022/02/10 11:44:25;;;;;;;0.67;0.30;;;8.70;99.90;;;;;;5071150;28;20252;-83
2022/02/10 11:47:11;;;;;;;0.67;0.40;;;8.80;99.90;;;;;;5058064;28;20215;-84
2022/02/10 13:32:32;;;;;;;0.20;0.20;;;9.60;99.90;;;;;;5061266;28;20251;-83
2022/02/10 13:48:23;;;;;;;0.60;0.60;;;10.30;99.90;;;;;;5060572;28;20180;-83
2022/02/10 14:18:03;;;;;;;1.13;0.60;;;9.80;99.90;;;;;;5055059;28;20201;-83
2022/02/10 14:25:48;;;;;;;1.17;0.40;;;9.70;99.90;;;;;;5070907;28;20826;-82
2022/02/10 14:28:16;;;;;;;0.43;0.43;;;9.70;99.90;;;;;;5064991;28;20185;-83
2022/02/10 14:30:42;;;;;;;3.33;0.30;;;9.70;99.90;;;;;;5072075;28;20183;-83
2022/02/10 14:36:40;;;;;;;0.40;0.40;;;9.70;99.90;;;;;;5062185;28;20201;-83
2022/02/10 14:39:55;;;;;;;0.60;0.60;;;9.70;99.90;;;;;;5061074;28;20174;-82
2022/02/10 15:35:35;;;;;;;0.30;0.30;;;9.10;99.90;;;;;;5071021;28;20240;-83
2022/02/10 15:45:47;;;;;;;0.30;0.30;;;9.10;99.90;;;;;;5066677;28;20261;-82
2022/02/10 15:48:25;;;;;;;0.63;0.40;;;9.00;99.90;;;;;;5075119;28;20181;-82
2022/02/10 15:50:16;;;;;;;0.20;0.20;;;9.00;99.90;;;;;;5071226;28;20733;-82
2022/02/10 15:53:07;;;;;;;0.97;0.20;;;9.00;99.90;;;;;;5064698;28;20184;-83
2022/02/10 16:15:15;;;;;;;0.60;0.50;;;8.80;99.90;;;;;;5068868;28;20200;-83
2022/02/10 16:17:39;;;;;;;0.50;0.50;;;8.80;99.90;;;;;;5069554;28;20226;-83
2022/02/10 16:20:08;;;;;;;2.90;1.03;;;8.70;99.90;;;;;;5057405;28;20191;-83
2022/02/10 16:22:38;;;;;;;0.43;0.30;;;8.70;99.90;;;;;;5068603;28;20206;-83
2022/02/10 16:25:08;;;;;;;0.60;0.60;;;8.70;99.90;;;;;;5064823;28;20200;-82
2022/02/10 16:27:36;;;;;;;0.40;0.40;;;8.70;99.90;;;;;;5060225;28;20171;-83
2022/02/10 16:30:12;;;;;;;0.60;0.43;;;8.70;99.90;;;;;;5060664;28;20268;-83
2022/02/10 16:32:40;;;;;;;1.03;0.93;;;8.70;99.90;;;;;;5066083;28;20179;-83
2022/02/10 16:35:06;;;;;;;0.37;0.37;;;8.70;99.90;;;;;;5058575;28;20199;-83
2022/02/10 16:37:35;;;;;;;0.60;0.60;;;8.60;99.90;;;;;;5063721;28;20178;-83
2022/02/10 16:40:01;;;;;;;3.00;0.50;;;8.60;99.90;;;;;;5061273;28;20206;-83
2022/02/10 16:42:26;;;;;;;0.60;0.60;;;8.60;99.90;;;;;;5063445;28;20288;-83
2022/02/10 16:44:53;;;;;;;2.40;0.90;;;8.60;99.90;;;;;;5065046;28;20233;-82
2022/02/10 16:47:19;;;;;;;2.03;0.60;;;8.60;99.90;;;;;;5064849;28;20181;-83
2022/02/10 16:49:51;;;;;;;0.43;0.43;;;8.60;99.90;;;;;;5058686;28;20181;-83
2022/02/10 16:52:22;;;;;;;0.57;0.40;;;8.60;99.90;;;;;;5064988;28;20238;-83
2022/02/10 16:54:52;;;;;;;0.60;0.60;;;8.50;99.90;;;;;;5059203;28;20603;-83
2022/02/10 16:57:36;;;;;;;0.47;0.47;;;8.50;99.90;;;;;;5066620;28;20208;-83
2022/02/10 17:00:33;;;;;;;0.40;0.40;;;8.50;99.90;;;;;;5065979;28;20187;-82
2022/02/10 17:14:08;;;;;;;0.60;0.53;;;8.40;99.90;;;;;;5069142;28;20262;-83
2022/02/10 17:14:08;;;;;;;0.53;0.53;;;8.40;99.90;;;;;;5063971;28;20172;-83
2022/02/10 17:19:31;;;;;;;0.63;0.30;;;8.40;99.90;;;;;;5064630;28;20209;-83
2022/02/10 17:32:35;;;;;;;0.90;0.73;;;8.20;99.90;;;;;;5061182;28;20212;-83
2022/02/10 17:46:06;;;;;;;0.50;0.50;;;8.10;99.90;;;;;;5057493;28;20614;-83
2022/02/10 17:54:02;;;;;;;0.60;0.60;;;8.10;99.90;;;;;;5057451;28;20201;-82
2022/02/10 17:56:28;;;;;;;0.47;0.43;;;8.10;99.90;;;;;;5068751;28;20199;-83
2022/02/10 17:58:54;;;;;;;0.40;0.40;;;8.10;99.90;;;;;;5062023;28;20256;-83
2022/02/10 18:01:20;;;;;;;0.40;0.40;;;8.10;99.90;;;;;;5064325;28;20266;-83
2022/02/10 18:03:47;;;;;;;0.70;0.70;;;8.00;99.90;;;;;;5067408;28;20199;-83
2022/02/10 18:06:23;;;;;;;1.00;0.90;;;8.00;99.90;;;;;;5062852;28;20209;-83
2022/02/10 18:14:08;;;;;;;0.30;0.20;;;8.00;99.90;;;;;;5064979;28;20603;-84
2022/02/10 18:16:46;;;;;;;0.20;0.20;;;8.00;99.90;;;;;;5065742;28;20619;-83
2022/02/10 18:19:19;;;;;;;0.37;0.37;;;7.90;99.90;;;;;;5071567;28;20177;-83
2022/02/10 19:02:30;;;;;;;0.93;0.63;;;7.80;99.90;;;;;;5065210;28;20193;-83
2022/02/10 19:07:53;;;;;;;1.13;0.73;;;7.90;99.90;;;;;;5052942;28;20711;-83
2022/02/10 19:10:23;;;;;;;1.17;1.03;;;7.80;99.90;;;;;;5059714;28;20206;-83
2022/02/10 19:12:54;;;;;;;1.00;0.90;;;7.80;99.90;;;;;;5069352;28;20219;-83
2022/02/10 19:15:23;;;;;;;1.40;0.60;;;7.80;99.90;;;;;;5059189;28;20660;-84
2022/02/10 19:17:50;;;;;;;2.20;0.70;;;7.80;99.90;;;;;;5069872;28;20179;-83
2022/02/10 19:20:16;;;;;;;0.20;0.20;;;7.90;99.90;;;;;;5058627;28;20271;-83
2022/02/10 19:22:43;;;;;;;0.73;0.60;;;7.90;99.90;;;;;;5069199;28;20553;-83
2022/02/10 19:25:10;;;;;;;0.93;0.87;;;7.90;99.90;;;;;;5060161;28;20277;-83
2022/02/10 19:27:37;;;;;;;0.60;0.60;;;7.90;99.90;;;;;;5064752;28;20176;-83
2022/02/10 19:30:07;;;;;;;0.50;0.50;;;8.00;99.90;;;;;;5066252;28;20169;-83
2022/02/10 19:32:33;;;;;;;0.60;0.60;;;7.90;99.90;;;;;;5066708;28;20178;-83
2022/02/10 19:34:59;;;;;;;0.73;0.73;;;7.90;99.90;;;;;;5067322;28;20198;-83
2022/02/10 19:37:27;;;;;;;0.77;0.63;;;8.00;99.90;;;;;;5061737;28;20175;-83
2022/02/10 19:39:57;;;;;;;1.43;0.90;;;7.90;99.90;;;;;;5063695;28;20185;-83
2022/02/10 19:42:26;;;;;;;0.17;0.17;;;7.90;99.90;;;;;;5062938;28;20232;-83
2022/02/10 19:44:57;;;;;;;0.93;0.67;;;7.90;99.90;;;;;;5065684;28;20206;-83
2022/02/10 19:47:22;;;;;;;0.20;0.20;;;7.90;99.90;;;;;;5061427;28;20654;-83
2022/02/10 19:49:48;;;;;;;0.20;0.20;;;7.90;99.90;;;;;;5065621;28;20269;-83
2022/02/10 19:52:15;;;;;;;0.67;0.67;;;8.00;99.90;;;;;;5060611;28;20241;-83
2022/02/10 19:54:46;;;;;;;3.07;0.73;;;8.00;99.90;;;;;;5066744;28;20205;-83
2022/02/10 19:57:14;;;;;;;0.70;0.70;;;8.00;99.90;;;;;;5057534;28;20181;-83
2022/02/10 19:59:39;;;;;;;0.20;0.20;;;8.00;99.90;;;;;;5067872;28;20651;-83
2022/02/10 20:02:06;;;;;;;0.50;0.40;;;8.00;99.90;;;;;;5064496;28;20207;-82
2022/02/10 20:04:32;;;;;;;0.63;0.60;;;7.90;99.90;;;;;;5056758;28;20221;-83
2022/02/10 20:06:58;;;;;;;0.40;0.40;;;8.00;99.90;;;;;;5072003;28;20180;-83
2022/02/10 20:09:24;;;;;;;0.70;0.60;;;8.00;99.90;;;;;;5067265;28;20179;-83
2022/02/10 20:11:51;;;;;;;0.67;0.67;;;8.00;99.90;;;;;;5060724;28;20199;-82
2022/02/10 20:14:21;;;;;;;0.40;0.40;;;8.10;99.90;;;;;;5065133;28;20189;-83
2022/02/10 20:16:48;;;;;;;1.10;0.90;;;8.00;99.90;;;;;;5058584;28;20182;-82
2022/02/10 20:19:14;;;;;;;0.20;0.20;;;8.00;99.90;;;;;;5063509;28;20559;-83
2022/02/10 20:21:39;;;;;;;0.30;0.30;;;8.00;99.90;;;;;;5062076;28;20185;-83
2022/02/10 20:24:05;;;;;;;1.00;0.33;;;8.00;99.90;;;;;;5061279;28;20642;-83
2022/02/10 20:26:31;;;;;;;1.20;1.10;;;8.00;99.90;;;;;;5067497;28;20263;-83
2022/02/10 20:28:57;;;;;;;0.60;0.60;;;8.00;99.90;;;;;;5059384;28;20211;-83
2022/02/10 20:31:24;;;;;;;2.00;0.80;;;8.00;99.90;;;;;;5066981;28;20187;-83
2022/02/10 20:33:50;;;;;;;0.30;0.30;;;8.00;99.90;;;;;;5057846;28;20184;-83
2022/02/10 20:36:16;;;;;;;0.90;0.90;;;8.00;99.90;;;;;;5066756;28;20569;-84
2022/02/10 20:38:45;;;;;;;1.50;0.30;;;8.00;99.90;;;;;;5056843;28;20724;-83
2022/02/10 20:41:16;;;;;;;0.23;0.23;;;8.00;99.90;;;;;;5068369;28;20172;-83
2022/02/10 20:43:44;;;;;;;0.60;0.50;;;8.00;99.90;;;;;;5055680;28;20625;-82
2022/02/10 20:46:13;;;;;;;0.23;0.23;;;8.00;99.90;;;;;;5066609;28;20668;-83
2022/02/10 20:48:41;;;;;;;0.57;0.57;;;8.00;99.90;;;;;;5056275;28;20184;-83
2022/02/10 20:51:12;;;;;;;0.40;0.40;;;7.90;99.90;;;;;;5066433;28;20626;-83
2022/02/10 20:53:40;;;;;;;0.50;0.50;;;7.90;99.90;;;;;;5058251;28;20582;-83
2022/02/10 20:56:08;;;;;;;0.77;0.50;;;8.00;99.90;;;;;;5067358;28;20666;-83
2022/02/10 20:58:35;;;;;;;0.20;0.20;;;8.00;99.90;;;;;;5058432;28;20177;-84
2022/02/10 21:01:02;;;;;;;0.67;0.60;;;8.00;99.90;;;;;;5065899;28;20202;-83
2022/02/10 21:03:31;;;;;;;2.30;0.80;;;8.00;99.90;;;;;;5071636;28;20196;-83
2022/02/10 21:08:52;;;;;;;0.17;0.17;;;8.00;99.90;;;;;;5066393;28;20547;-83
2022/02/10 21:11:22;;;;;;;0.37;0.37;;;7.90;99.90;;;;;;5063683;28;20259;-84
2022/02/10 21:13:48;;;;;;;0.40;0.40;;;7.90;99.90;;;;;;5063299;28;20183;-82
2022/02/10 21:16:13;;;;;;;0.30;0.30;;;7.90;99.90;;;;;;5081879;28;20200;-83
2022/02/10 21:18:41;;;;;;;1.57;0.57;;;7.90;99.90;;;;;;5060494;28;20258;-83
2022/02/10 21:21:12;;;;;;;0.37;0.37;;;8.00;99.90;;;;;;5065649;28;20545;-83
2022/02/10 21:26:10;;;;;;;0.20;0.20;;;7.90;99.90;;;;;;5066298;28;20282;-83
2022/02/10 21:28:39;;;;;;;0.10;0.10;;;7.90;99.90;;;;;;5056670;28;20169;-83
2022/02/10 21:31:07;;;;;;;1.13;0.97;;;7.80;99.90;;;;;;5071247;28;20178;-83
2022/02/10 21:39:00;;;;;;;1.80;0.20;;;7.90;99.90;;;;;;5074765;28;20283;-83
2022/02/10 21:55:15;;;;;;;0.30;0.30;;;8.00;99.90;;;;;;5072192;28;20199;-83
2022/02/10 22:21:51;;;;;;;0.50;0.50;;;7.70;99.90;;;;;;5061254;28;20283;-83
2022/02/10 22:24:18;;;;;;;0.53;0.53;;;7.70;99.90;;;;;;5069137;28;20258;-83
2022/02/10 22:26:44;;;;;;;0.60;0.60;;;7.60;99.90;;;;;;5071627;28;20187;-83
2022/02/10 22:31:53;;;;;;;0.30;0.30;;;7.60;99.90;;;;;;5075581;28;20183;-83
2022/02/10 22:34:30;;;;;;;1.03;0.60;;;7.70;99.90;;;;;;5068443;28;20205;-83
2022/02/10 22:37:02;;;;;;;0.37;0.30;;;7.70;99.90;;;;;;5072666;28;20184;-83
2022/02/10 22:39:33;;;;;;;0.40;0.40;;;7.70;99.90;;;;;;5071025;28;20662;-83
2022/02/10 22:41:58;;;;;;;0.57;0.50;;;7.80;99.90;;;;;;5070076;28;20649;-83
2022/02/10 22:44:24;;;;;;;0.50;0.50;;;7.80;99.90;;;;;;5059092;28;20211;-83
2022/02/10 22:46:49;;;;;;;0.40;0.40;;;7.70;99.90;;;;;;5067841;28;20188;-83
2022/02/10 22:49:15;;;;;;;0.50;0.50;;;7.80;99.90;;;;;;5058670;28;20177;-83
2022/02/10 22:51:41;;;;;;;1.27;1.17;;;7.70;99.90;;;;;;5069258;28;20180;-83
2022/02/10 22:54:07;;;;;;;0.50;0.50;;;7.70;99.90;;;;;;5058995;28;20185;-83
2022/02/10 22:56:33;;;;;;;0.73;0.73;;;7.70;99.90;;;;;;5069651;28;20213;-83
2022/02/10 22:59:01;;;;;;;0.47;0.47;;;7.60;99.90;;;;;;5065362;28;20183;-83
2022/02/10 23:01:27;;;;;;;0.30;0.30;;;7.60;99.90;;;;;;5065034;28;20292;-83
2022/02/10 23:03:53;;;;;;;0.60;0.60;;;7.70;99.90;;;;;;5060870;28;20273;-83
2022/02/10 23:06:19;;;;;;;0.17;0.17;;;7.60;99.90;;;;;;5059608;28;20574;-83
2022/02/10 23:08:45;;;;;;;0.27;0.27;;;7.60;99.90;;;;;;5065670;28;20177;-83
2022/02/10 23:11:13;;;;;;;1.13;0.70;;;7.50;99.90;;;;;;5069324;28;20275;-83
2022/02/10 23:13:44;;;;;;;0.87;0.87;;;7.50;99.90;;;;;;5065163;28;20178;-83
2022/02/10 23:16:13;;;;;;;0.90;0.90;;;7.40;99.90;;;;;;5064325;28;20212;-83
2022/02/10 23:18:40;;;;;;;0.70;0.43;;;7.40;99.90;;;;;;5059917;28;20266;-83
2022/02/10 23:21:10;;;;;;;1.33;0.77;;;7.30;99.90;;;;;;5066477;28;20178;-83
2022/02/10 23:23:39;;;;;;;0.77;0.33;;;7.30;99.90;;;;;;5058707;28;20204;-83
2022/02/10 23:26:08;;;;;;;0.73;0.73;;;7.00;99.90;;;;;;5068737;28;20574;-82
2022/02/10 23:28:37;;;;;;;0.77;0.77;;;6.80;99.90;;;;;;5059396;28;20174;-83
2022/02/10 23:31:05;;;;;;;0.10;0.10;;;6.70;99.90;;;;;;5058379;28;20235;-83
2022/02/10 23:33:33;;;;;;;0.40;0.30;;;6.60;99.90;;;;;;5069340;28;20181;-83
2022/02/10 23:38:47;;;;;;;0.10;0.10;;;6.40;99.90;;;;;;5063016;28;20181;-83
2022/02/10 23:43:41;;;;;;;0.10;0.10;;;6.30;99.90;;;;;;5057713;28;20199;-82
2022/02/10 23:46:07;;;;;;;2.20;0.10;;;6.20;99.90;;;;;;5067203;28;20685;-83
2022/02/10 23:48:34;;;;;;;0.00;0.00;;;6.20;99.90;;;;;;5059063;28;20188;-83
2022/02/10 23:51:00;;;;;;;0.10;0.10;;;6.20;99.90;;;;;;5068876;28;20223;-82
2022/02/10 23:53:27;;;;;;;0.57;0.30;;;6.10;99.90;;;;;;5063915;28;20186;-82
2022/02/10 23:55:53;;;;;;;0.10;0.10;;;6.10;99.90;;;;;;5069879;28;20252;-82
2022/02/10 23:58:46;;;;;;;0.00;0.00;;;6.00;99.90;;;;;;5069363;28;20181;-83
